Terminal Aerodrome Forecast
Issued by NWS Cleveland, OH

Home | Current Version | Previous Version | Text Only | Print | Product List | Glossary On
Versions: 1 2 3 4 5 6 7 8 9 10 11 12 13 14 15 16 17 18 19 20 21 22
852
FTUS41 KCLE 261133
TAFERI
TAF
KERI 261133Z 2612/2712 16008KT P6SM SCT250
     FM261500 24008KT P6SM FEW035 SCT250
     FM261800 30008KT P6SM SCT250
     FM262300 VRB03KT P6SM BKN200
     FM270400 18008KT P6SM BKN200=

USA.gov is the U.S. government's official web portal to all federal, state and local government web resources and services.